Time;durP1;ratioP1;P1;durP2;ratioP2;P2;SDS_P1;SDS_P2;PMS_P1;PMS_P2;Temp;Humidity;BMP_temperature;BMP_pressure;BME280_temperature;BME280_humidity;BME280_pressure;Samples;Min_cycle;Max_cycle;Signal;HPM_P1;HPM_P2
2023/12/18 00:00:38;;;;;;;15.20;6.03;;;;;;;2.28;100.00;98200.88;5037369;28;20199;-69
2023/12/18 00:03:05;;;;;;;13.60;5.87;;;;;;;2.19;100.00;98205.72;5037417;28;20209;-68
2023/12/18 00:05:32;;;;;;;19.73;6.10;;;;;;;2.20;100.00;98202.19;5036662;28;20208;-68
2023/12/18 00:07:58;;;;;;;18.37;6.63;;;;;;;2.16;100.00;98198.06;5035807;28;20322;-69
2023/12/18 00:10:26;;;;;;;17.43;7.20;;;;;;;2.46;100.00;98192.94;5034436;28;20251;-69
2023/12/18 00:12:52;;;;;;;19.47;7.70;;;;;;;2.09;100.00;98194.13;5036526;28;20251;-68
2023/12/18 00:15:19;;;;;;;17.30;8.00;;;;;;;2.33;100.00;98190.22;5035588;28;20209;-68
2023/12/18 00:17:46;;;;;;;18.30;8.60;;;;;;;2.27;100.00;98187.97;5035452;28;20197;-68
2023/12/18 00:20:12;;;;;;;20.43;7.67;;;;;;;2.40;100.00;98189.84;5036445;28;20201;-68
2023/12/18 00:22:39;;;;;;;15.30;5.87;;;;;;;2.10;100.00;98193.19;5038178;28;20225;-68
2023/12/18 00:25:06;;;;;;;15.97;6.07;;;;;;;2.27;100.00;98190.56;5037039;28;20202;-69
2023/12/18 00:27:33;;;;;;;19.13;6.70;;;;;;;2.18;100.00;98194.47;5037775;28;20312;-68
2023/12/18 00:30:00;;;;;;;19.03;7.40;;;;;;;2.01;100.00;98197.09;5037069;28;20235;-68
2023/12/18 00:32:27;;;;;;;13.20;6.40;;;;;;;2.08;100.00;98192.44;5036767;28;20221;-68
2023/12/18 00:34:53;;;;;;;19.63;6.43;;;;;;;2.21;100.00;98201.28;5037401;28;20215;-68
2023/12/18 00:37:20;;;;;;;15.23;6.37;;;;;;;2.11;100.00;98194.88;5036910;28;20216;-69
2023/12/18 00:39:46;;;;;;;16.13;6.53;;;;;;;2.23;100.00;98199.41;5036910;28;20222;-68
2023/12/18 00:42:13;;;;;;;16.40;6.03;;;;;;;1.96;100.00;98198.25;5036660;28;20702;-69
2023/12/18 00:44:41;;;;;;;17.70;6.77;;;;;;;2.20;100.00;98187.44;5037517;28;20197;-68
2023/12/18 00:47:07;;;;;;;18.87;7.27;;;;;;;2.27;100.00;98182.78;5036760;28;20238;-68
2023/12/18 00:49:34;;;;;;;11.87;5.80;;;;;;;2.25;100.00;98187.19;5036548;28;20221;-68
2023/12/18 00:52:00;;;;;;;16.63;7.10;;;;;;;2.41;100.00;98179.34;5036626;28;20220;-68
2023/12/18 00:54:27;;;;;;;15.60;6.03;;;;;;;2.39;100.00;98182.94;5037198;28;20207;-68
2023/12/18 00:56:54;;;;;;;15.57;6.47;;;;;;;2.37;100.00;98184.81;5036993;28;20209;-69
2023/12/18 00:59:20;;;;;;;19.70;6.00;;;;;;;2.32;100.00;98179.00;5036339;28;20566;-69
2023/12/18 01:01:48;;;;;;;19.80;7.00;;;;;;;2.47;100.00;98191.22;5036367;28;20236;-69
2023/12/18 01:04:15;;;;;;;14.73;5.43;;;;;;;2.06;100.00;98191.66;5036533;28;20224;-68
2023/12/18 01:06:41;;;;;;;15.50;6.23;;;;;;;2.07;100.00;98190.75;5037624;28;20220;-68
2023/12/18 01:09:08;;;;;;;15.63;6.57;;;;;;;2.17;100.00;98184.16;5036188;28;20205;-68
2023/12/18 01:11:35;;;;;;;18.00;7.87;;;;;;;2.35;100.00;98178.81;5036450;28;20225;-68
2023/12/18 01:14:01;;;;;;;18.50;6.80;;;;;;;2.42;100.00;98175.81;5036803;28;20568;-69
2023/12/18 01:16:28;;;;;;;18.70;6.07;;;;;;;2.19;100.00;98174.50;5036627;28;20201;-69
2023/12/18 01:18:55;;;;;;;21.17;7.27;;;;;;;2.46;100.00;98179.94;5036576;28;20674;-69
2023/12/18 01:21:22;;;;;;;21.37;7.17;;;;;;;2.12;100.00;98170.56;5035299;28;20235;-68
2023/12/18 01:23:49;;;;;;;16.20;7.17;;;;;;;2.18;100.00;98175.44;5036614;28;20213;-68
2023/12/18 01:26:15;;;;;;;18.57;7.23;;;;;;;2.32;100.00;98171.19;5037073;28;20201;-68
2023/12/18 01:28:42;;;;;;;16.60;6.63;;;;;;;2.15;100.00;98176.44;5036231;28;20212;-68
2023/12/18 01:31:08;;;;;;;15.23;5.67;;;;;;;2.09;100.00;98178.53;5035397;28;20236;-68
2023/12/18 01:33:35;;;;;;;19.27;6.70;;;;;;;2.02;100.00;98177.13;5037050;28;20198;-68
2023/12/18 01:36:03;;;;;;;18.93;7.23;;;;;;;2.34;100.00;98171.09;5035978;28;20209;-68
2023/12/18 01:38:30;;;;;;;17.87;6.67;;;;;;;2.24;100.00;98168.16;5035673;28;20197;-68
2023/12/18 01:40:56;;;;;;;19.23;7.13;;;;;;;2.04;100.00;98167.50;5036040;28;20225;-69
2023/12/18 01:43:23;;;;;;;18.03;6.83;;;;;;;2.13;100.00;98170.47;5035670;28;20216;-68
2023/12/18 01:45:55;;;;;;;11.53;5.20;;;;;;;2.11;100.00;98166.25;5036029;28;20211;-68
2023/12/18 01:48:21;;;;;;;14.20;6.10;;;;;;;2.08;100.00;98162.06;5036242;28;20208;-68
2023/12/18 01:50:48;;;;;;;16.70;6.93;;;;;;;2.21;100.00;98162.28;5036010;28;20255;-68
2023/12/18 01:53:16;;;;;;;18.13;6.97;;;;;;;2.20;100.00;98152.78;5036001;28;20231;-68
2023/12/18 01:55:42;;;;;;;21.80;7.07;;;;;;;2.11;100.00;98161.06;5036597;28;20205;-68
2023/12/18 01:58:10;;;;;;;18.37;6.83;;;;;;;2.03;100.00;98163.22;5036005;28;20216;-68
2023/12/18 02:00:36;;;;;;;18.33;6.33;;;;;;;2.26;100.00;98155.91;5035282;28;20197;-68
2023/12/18 02:03:04;;;;;;;23.07;7.40;;;;;;;2.40;100.00;98151.63;5036090;28;20768;-68
2023/12/18 02:05:30;;;;;;;18.07;6.60;;;;;;;2.14;100.00;98150.50;5036009;28;20215;-68
2023/12/18 02:07:58;;;;;;;17.17;7.33;;;;;;;2.29;100.00;98157.50;5036002;28;20208;-68
2023/12/18 02:10:26;;;;;;;18.73;6.57;;;;;;;2.21;100.00;98151.88;5034895;28;20229;-69
2023/12/18 02:12:53;;;;;;;19.07;7.47;;;;;;;2.15;100.00;98149.56;5035903;28;20227;-68
2023/12/18 02:15:19;;;;;;;16.47;6.67;;;;;;;2.09;100.00;98148.16;5035357;28;20207;-68
2023/12/18 02:17:46;;;;;;;13.87;6.23;;;;;;;2.05;100.00;98140.56;5036322;28;20201;-68
2023/12/18 02:20:13;;;;;;;17.70;7.57;;;;;;;2.10;100.00;98138.56;5035282;28;20201;-68
2023/12/18 02:22:51;;;;;;;16.90;5.83;;;;;;;2.27;100.00;98141.16;5035770;28;20221;-68
2023/12/18 02:25:18;;;;;;;18.27;6.80;;;;;;;2.27;100.00;98136.78;5035460;28;20226;-68
2023/12/18 02:27:46;;;;;;;15.23;5.63;;;;;;;2.19;100.00;98138.94;5036559;28;20205;-68
2023/12/18 02:30:15;;;;;;;13.87;5.77;;;;;;;2.32;100.00;98134.78;5034978;28;20235;-68
2023/12/18 02:32:41;;;;;;;19.27;6.73;;;;;;;2.27;100.00;98135.94;5035351;28;20220;-68
2023/12/18 02:35:08;;;;;;;15.20;6.23;;;;;;;1.94;100.00;98140.31;5036162;28;20247;-68
2023/12/18 02:37:35;;;;;;;18.67;7.03;;;;;;;2.12;100.00;98137.56;5035146;28;20209;-68
2023/12/18 02:40:03;;;;;;;17.50;5.87;;;;;;;2.36;100.00;98138.06;5038811;28;20205;-68
2023/12/18 02:42:30;;;;;;;16.27;7.30;;;;;;;2.08;100.00;98130.84;5039756;28;20224;-68
2023/12/18 02:44:57;;;;;;;17.13;5.87;;;;;;;2.09;100.00;98144.72;5039814;28;20215;-68
2023/12/18 02:47:23;;;;;;;16.37;6.07;;;;;;;1.99;100.00;98140.91;5038651;28;20209;-68
2023/12/18 02:49:50;;;;;;;16.17;6.30;;;;;;;2.01;100.00;98137.31;5039371;28;20201;-68
2023/12/18 02:52:17;;;;;;;22.20;7.73;;;;;;;2.01;100.00;98139.06;5039285;28;20225;-69
2023/12/18 02:54:43;;;;;;;15.00;7.10;;;;;;;2.02;100.00;98132.94;5038768;28;20208;-68
2023/12/18 02:57:11;;;;;;;20.47;6.97;;;;;;;2.16;100.00;98133.06;5040127;28;20205;-68
2023/12/18 02:59:38;;;;;;;17.87;6.53;;;;;;;2.05;100.00;98136.22;5038853;28;20777;-68
2023/12/18 03:02:04;;;;;;;15.33;6.73;;;;;;;2.24;100.00;98136.09;5039358;28;20235;-68
2023/12/18 03:04:31;;;;;;;16.67;6.77;;;;;;;2.34;100.00;98138.13;5038437;28;20219;-68
2023/12/18 03:06:57;;;;;;;19.00;7.67;;;;;;;2.14;100.00;98129.69;5039579;28;20209;-68
2023/12/18 03:09:24;;;;;;;22.23;6.97;;;;;;;2.27;100.00;98130.75;5038128;28;20212;-69
2023/12/18 03:11:50;;;;;;;17.97;7.43;;;;;;;2.19;100.00;98136.34;5039213;28;20236;-68
2023/12/18 03:14:18;;;;;;;16.63;6.77;;;;;;;2.34;100.00;98121.69;5038776;28;20780;-68
2023/12/18 03:16:44;;;;;;;16.83;6.83;;;;;;;1.97;100.00;98117.59;5038668;28;20220;-68
2023/12/18 03:19:11;;;;;;;14.27;6.23;;;;;;;2.22;100.00;98115.38;5038965;28;20202;-68
2023/12/18 03:21:37;;;;;;;19.17;7.17;;;;;;;2.08;100.00;98104.03;5037943;28;20213;-68
2023/12/18 03:24:04;;;;;;;18.30;7.07;;;;;;;2.05;100.00;98110.22;5039311;28;20208;-68
2023/12/18 03:26:31;;;;;;;14.97;6.27;;;;;;;2.00;100.00;98112.22;5038350;28;20205;-68
2023/12/18 03:29:00;;;;;;;16.13;5.63;;;;;;;1.96;100.00;98102.91;5038959;28;20209;-68
2023/12/18 03:31:27;;;;;;;15.70;5.60;;;;;;;2.18;100.00;98106.06;5036099;28;20646;-68
2023/12/18 03:33:54;;;;;;;15.63;6.23;;;;;;;1.89;100.00;98104.13;5038742;28;20589;-68
2023/12/18 03:36:20;;;;;;;15.20;6.10;;;;;;;1.76;100.00;98099.66;5038403;28;20201;-68
2023/12/18 03:38:47;;;;;;;13.10;5.13;;;;;;;1.82;100.00;98104.56;5038317;28;20259;-69
2023/12/18 03:41:13;;;;;;;18.77;6.70;;;;;;;2.04;100.00;98099.91;5038034;28;20225;-69
2023/12/18 03:43:40;;;;;;;13.17;5.83;;;;;;;1.89;100.00;98096.34;5038139;28;20208;-68
2023/12/18 03:46:07;;;;;;;19.17;7.17;;;;;;;2.03;100.00;98095.63;5038631;28;20220;-68
2023/12/18 03:48:35;;;;;;;16.13;5.97;;;;;;;2.05;100.00;98091.16;5037939;28;20213;-68
2023/12/18 03:51:01;;;;;;;20.37;7.63;;;;;;;2.05;100.00;98099.81;5037908;28;20229;-68
2023/12/18 03:53:28;;;;;;;16.20;5.97;;;;;;;1.99;100.00;98099.31;5038452;28;20212;-69
2023/12/18 03:55:54;;;;;;;17.27;6.47;;;;;;;2.11;100.00;98093.44;5038280;28;20205;-68
2023/12/18 03:58:21;;;;;;;19.90;7.10;;;;;;;2.07;100.00;98091.94;5038100;28;20224;-68
2023/12/18 04:00:47;;;;;;;18.00;7.00;;;;;;;1.85;100.00;98091.38;5037639;28;20737;-68
2023/12/18 04:03:14;;;;;;;17.23;6.67;;;;;;;1.95;100.00;98100.41;5038660;28;20201;-68
2023/12/18 04:05:42;;;;;;;16.67;6.50;;;;;;;2.16;100.00;98096.66;5038265;28;20205;-68
2023/12/18 04:08:08;;;;;;;15.67;6.70;;;;;;;2.14;100.00;98093.28;5038247;28;20216;-68
2023/12/18 04:10:35;;;;;;;20.80;6.83;;;;;;;1.87;100.00;98097.31;5036846;28;20722;-68
2023/12/18 04:13:02;;;;;;;18.03;6.90;;;;;;;2.13;100.00;98096.81;5037851;28;20209;-68
2023/12/18 04:15:28;;;;;;;16.73;5.53;;;;;;;1.96;100.00;98099.44;5037518;28;20205;-68
2023/12/18 04:17:55;;;;;;;18.43;6.13;;;;;;;1.95;100.00;98097.78;5038308;28;20204;-68
2023/12/18 04:20:21;;;;;;;13.80;6.33;;;;;;;1.84;100.00;98094.91;5037307;28;20205;-68
2023/12/18 04:22:50;;;;;;;14.73;5.80;;;;;;;2.13;100.00;98087.25;5038012;28;20228;-69
2023/12/18 04:25:17;;;;;;;16.33;6.27;;;;;;;1.93;100.00;98095.25;5037729;28;20213;-68
2023/12/18 04:27:43;;;;;;;17.20;7.03;;;;;;;1.99;100.00;98096.72;5037372;28;20202;-68
2023/12/18 04:30:11;;;;;;;17.10;6.60;;;;;;;2.05;100.00;98083.38;5037448;28;20216;-68
2023/12/18 04:32:38;;;;;;;15.53;5.67;;;;;;;1.88;100.00;98086.88;5037493;28;20255;-68
2023/12/18 04:35:05;;;;;;;15.80;7.07;;;;;;;1.86;100.00;98083.50;5037254;28;20204;-68
2023/12/18 04:37:32;;;;;;;13.40;5.73;;;;;;;1.89;100.00;98083.34;5036682;28;20212;-68
2023/12/18 04:40:00;;;;;;;16.80;6.30;;;;;;;2.12;100.00;98079.53;5037283;28;20238;-68
2023/12/18 04:42:27;;;;;;;14.20;5.97;;;;;;;1.87;100.00;98073.94;5036782;28;20706;-68
2023/12/18 04:44:53;;;;;;;19.53;6.77;;;;;;;1.92;100.00;98077.13;5035709;28;20212;-68
2023/12/18 04:47:20;;;;;;;13.97;6.17;;;;;;;1.98;100.00;98067.25;5036587;28;20556;-68
2023/12/18 04:49:47;;;;;;;15.00;5.87;;;;;;;1.91;100.00;98072.88;5036530;28;20205;-68
2023/12/18 04:52:13;;;;;;;16.10;6.40;;;;;;;1.74;100.00;98078.09;5037229;28;20248;-68
2023/12/18 04:54:40;;;;;;;15.80;6.07;;;;;;;1.61;100.00;98082.25;5036929;28;20201;-68
2023/12/18 04:57:07;;;;;;;13.20;6.10;;;;;;;1.71;100.00;98074.84;5037865;28;20205;-68
2023/12/18 04:59:34;;;;;;;11.93;5.23;;;;;;;1.57;100.00;98075.53;5036420;28;20855;-68
2023/12/18 05:02:00;;;;;;;13.37;5.50;;;;;;;1.40;100.00;98067.78;5036311;28;20229;-68
2023/12/18 05:04:27;;;;;;;17.00;5.50;;;;;;;1.61;100.00;98071.03;5036961;28;20209;-68
2023/12/18 05:06:53;;;;;;;14.87;6.20;;;;;;;1.66;100.00;98069.88;5036637;28;20785;-68
2023/12/18 05:09:20;;;;;;;22.10;7.50;;;;;;;1.65;100.00;98068.19;5036101;28;20220;-68
2023/12/18 05:11:46;;;;;;;15.37;6.47;;;;;;;1.43;100.00;98067.59;5036852;28;20251;-68
2023/12/18 05:14:15;;;;;;;17.53;6.37;;;;;;;1.72;100.00;98069.56;5037222;28;20212;-68
2023/12/18 05:16:41;;;;;;;15.83;6.23;;;;;;;1.57;100.00;98072.94;5036505;28;20218;-68
2023/12/18 05:19:08;;;;;;;19.17;6.90;;;;;;;1.63;100.00;98070.03;5037366;28;20204;-68
2023/12/18 05:21:34;;;;;;;16.83;6.67;;;;;;;1.60;100.00;98071.94;5036023;28;20221;-68
2023/12/18 05:24:01;;;;;;;15.37;5.87;;;;;;;1.68;100.00;98074.97;5036927;28;20304;-68
2023/12/18 05:26:27;;;;;;;20.03;7.27;;;;;;;1.84;100.00;98081.91;5036423;28;20217;-69
2023/12/18 05:28:54;;;;;;;15.23;6.20;;;;;;;1.86;100.00;98082.69;5036980;28;20228;-69
2023/12/18 05:31:22;;;;;;;15.47;6.23;;;;;;;1.95;100.00;98083.03;5035897;28;20229;-69
2023/12/18 05:33:48;;;;;;;18.27;6.60;;;;;;;1.64;100.00;98081.25;5036989;28;20371;-69
2023/12/18 05:36:15;;;;;;;17.37;6.07;;;;;;;1.80;100.00;98089.00;5036570;28;20697;-69
2023/12/18 05:38:40;;;;;;;12.50;5.67;;;;;;;1.68;100.00;98083.63;5035921;28;20259;-69
2023/12/18 05:41:07;;;;;;;15.73;6.23;;;;;;;1.47;100.00;98082.09;5036432;28;20213;-69
2023/12/18 05:43:34;;;;;;;19.17;7.73;;;;;;;1.52;100.00;98087.91;5036295;28;20208;-68
2023/12/18 05:46:00;;;;;;;15.47;6.20;;;;;;;1.57;100.00;98085.09;5036230;28;20200;-69
2023/12/18 05:48:28;;;;;;;16.17;7.17;;;;;;;1.65;100.00;98086.38;5036117;28;20219;-68
2023/12/18 05:50:54;;;;;;;18.97;6.33;;;;;;;1.71;100.00;98080.88;5035870;28;20228;-69
2023/12/18 05:53:21;;;;;;;18.07;6.57;;;;;;;1.53;100.00;98081.81;5036483;28;20205;-68
2023/12/18 05:55:48;;;;;;;17.37;6.53;;;;;;;1.46;100.00;98077.81;5035836;28;20212;-68
2023/12/18 05:58:14;;;;;;;15.30;6.17;;;;;;;1.44;100.00;98084.88;5036542;28;20292;-69
2023/12/18 06:00:41;;;;;;;18.43;6.87;;;;;;;1.57;100.00;98085.09;5035584;28;20205;-69
2023/12/18 06:03:07;;;;;;;15.37;6.20;;;;;;;1.57;100.00;98085.09;5036238;28;20592;-68
2023/12/18 06:05:35;;;;;;;17.57;7.03;;;;;;;1.75;100.00;98084.97;5035633;28;20218;-68
2023/12/18 06:08:01;;;;;;;16.87;6.23;;;;;;;1.64;100.00;98076.06;5036198;28;20205;-68
2023/12/18 06:10:28;;;;;;;18.80;6.00;;;;;;;1.53;100.00;98071.41;5034622;28;20672;-69
2023/12/18 06:12:54;;;;;;;13.00;5.10;;;;;;;1.59;100.00;98078.91;5035901;28;20225;-68
2023/12/18 06:15:21;;;;;;;16.77;6.00;;;;;;;1.58;100.00;98072.03;5035882;28;20219;-69
2023/12/18 06:17:48;;;;;;;18.30;7.00;;;;;;;1.76;100.00;98065.03;5034687;28;20205;-69
2023/12/18 06:20:14;;;;;;;14.97;6.43;;;;;;;1.50;100.00;98074.19;5035152;28;20216;-68
2023/12/18 06:22:42;;;;;;;15.13;5.10;;;;;;;1.66;100.00;98069.88;5036736;28;20221;-68
2023/12/18 06:25:09;;;;;;;19.90;7.67;;;;;;;1.70;100.00;98081.78;5036091;28;20208;-69
2023/12/18 06:27:36;;;;;;;19.93;7.00;;;;;;;1.84;100.00;98071.50;5035217;28;20213;-69
2023/12/18 06:30:03;;;;;;;17.37;5.70;;;;;;;1.85;100.00;98070.59;5035752;28;20213;-68
2023/12/18 06:32:29;;;;;;;14.97;6.90;;;;;;;1.55;100.00;98079.97;5035684;28;20628;-68
2023/12/18 06:34:56;;;;;;;16.47;6.33;;;;;;;1.73;100.00;98076.41;5035740;28;20216;-69
2023/12/18 06:37:24;;;;;;;16.43;6.17;;;;;;;1.58;100.00;98072.03;5035596;28;20686;-69
2023/12/18 06:39:52;;;;;;;15.57;6.17;;;;;;;1.66;100.00;98075.06;5034970;28;20228;-69
2023/12/18 06:42:18;;;;;;;15.60;6.40;;;;;;;1.66;100.00;98076.84;5035993;28;20240;-69
2023/12/18 06:44:45;;;;;;;12.07;5.40;;;;;;;1.44;100.00;98074.47;5034699;28;20201;-69
2023/12/18 06:47:11;;;;;;;18.30;6.17;;;;;;;1.65;100.00;98083.78;5036388;28;20222;-69
2023/12/18 06:49:38;;;;;;;17.30;6.63;;;;;;;1.60;100.00;98077.97;5035057;28;20212;-69
2023/12/18 06:52:05;;;;;;;17.20;6.80;;;;;;;1.76;100.00;98085.81;5036007;28;20331;-69
2023/12/18 06:54:33;;;;;;;18.07;7.50;;;;;;;1.63;100.00;98084.75;5035436;28;20558;-69
2023/12/18 06:57:01;;;;;;;22.00;8.00;;;;;;;1.93;100.00;98084.84;5033868;28;20308;-69
2023/12/18 06:59:28;;;;;;;24.53;7.10;;;;;;;1.83;100.00;98088.00;5031929;28;20209;-69
2023/12/18 07:01:54;;;;;;;14.47;6.03;;;;;;;1.52;100.00;98090.50;5033653;28;20248;-69
2023/12/18 07:04:21;;;;;;;18.50;6.53;;;;;;;1.58;100.00;98090.22;5033984;28;20205;-69
2023/12/18 07:06:47;;;;;;;13.10;5.53;;;;;;;1.68;100.00;98095.75;5033417;28;21117;-69
2023/12/18 07:09:14;;;;;;;16.60;6.50;;;;;;;1.75;100.00;98094.56;5033582;28;20215;-69
2023/12/18 07:11:40;;;;;;;15.37;6.93;;;;;;;1.76;100.00;98097.06;5033023;28;20611;-70
2023/12/18 07:14:08;;;;;;;17.63;6.03;;;;;;;1.79;100.00;98091.69;5033801;28;20238;-69
2023/12/18 07:16:35;;;;;;;15.37;5.23;;;;;;;1.68;100.00;98095.75;5033715;28;20236;-69
2023/12/18 07:19:00;;;;;;;17.03;6.30;;;;;;;1.61;100.00;98097.00;5033813;28;20198;-69
2023/12/18 07:21:27;;;;;;;11.63;4.73;;;;;;;1.72;100.00;98102.47;5033697;28;20647;-69
2023/12/18 07:23:54;;;;;;;14.63;5.73;;;;;;;1.78;100.00;98100.41;5035706;28;20212;-69
2023/12/18 07:26:21;;;;;;;18.67;7.00;;;;;;;1.81;100.00;98100.28;5036443;28;20197;-70
2023/12/18 07:28:48;;;;;;;14.93;6.47;;;;;;;1.78;100.00;98107.38;5038098;28;20247;-71
2023/12/18 07:31:17;;;;;;;11.97;4.93;;;;;;;2.07;100.00;98103.16;5038069;28;20231;-69
2023/12/18 07:33:44;;;;;;;16.77;6.73;;;;;;;1.74;100.00;98119.69;5038151;28;20671;-69
2023/12/18 07:36:10;;;;;;;18.23;5.80;;;;;;;1.91;100.00;98115.31;5039159;28;20201;-69
2023/12/18 07:38:37;;;;;;;14.63;5.90;;;;;;;1.86;100.00;98114.69;5038005;28;20205;-70
2023/12/18 07:41:04;;;;;;;16.53;6.03;;;;;;;1.85;100.00;98110.41;5037959;28;20235;-69
2023/12/18 07:43:30;;;;;;;14.60;5.80;;;;;;;1.69;100.00;98113.88;5037751;28;20319;-69
2023/12/18 07:45:57;;;;;;;14.23;5.53;;;;;;;1.78;100.00;98116.00;5039254;28;20303;-69
2023/12/18 07:48:26;;;;;;;14.53;5.90;;;;;;;1.87;100.00;98120.72;5033514;28;20211;-69
2023/12/18 07:50:52;;;;;;;17.87;6.00;;;;;;;1.65;100.00;98117.53;5036031;28;20197;-68
2023/12/18 07:53:19;;;;;;;16.30;5.60;;;;;;;1.71;100.00;98117.25;5036411;28;20236;-69
2023/12/18 07:55:46;;;;;;;18.00;7.07;;;;;;;1.70;100.00;98109.53;5036017;28;20681;-69
2023/12/18 07:58:12;;;;;;;17.93;7.37;;;;;;;1.68;100.00;98112.22;5035916;28;21217;-69
2023/12/18 08:00:39;;;;;;;11.07;3.67;;;;;;;1.72;100.00;98110.28;5034846;28;20207;-69
2023/12/18 08:03:06;;;;;;;18.73;6.03;;;;;;;1.71;100.00;98119.84;5034574;28;20936;-69
2023/12/18 08:05:33;;;;;;;23.93;7.13;;;;;;;1.78;100.00;98113.41;5034321;28;20682;-68
2023/12/18 08:08:00;;;;;;;20.57;6.97;;;;;;;1.78;100.00;98113.41;5034914;28;20197;-69
2023/12/18 08:10:27;;;;;;;17.13;6.63;;;;;;;1.91;100.00;98109.28;5034233;28;20201;-69
2023/12/18 08:12:53;;;;;;;17.80;7.00;;;;;;;1.96;100.00;98100.31;5034463;28;20239;-67
2023/12/18 08:15:20;;;;;;;15.03;5.40;;;;;;;1.98;100.00;98105.44;5033146;28;20891;-69
2023/12/18 08:17:46;;;;;;;15.47;6.10;;;;;;;1.98;100.00;98108.84;5034369;28;21655;-70
2023/12/18 08:20:15;;;;;;;21.50;7.33;;;;;;;1.91;100.00;98111.88;5034944;28;20298;-68
2023/12/18 08:22:43;;;;;;;16.77;6.30;;;;;;;2.09;100.00;98110.91;5035652;28;20232;-69
2023/12/18 08:25:10;;;;;;;17.93;5.83;;;;;;;1.92;100.00;98108.34;5035612;28;20202;-69
2023/12/18 08:27:36;;;;;;;16.07;5.87;;;;;;;2.19;100.00;98112.09;5034236;28;20694;-69
2023/12/18 08:30:04;;;;;;;13.63;5.53;;;;;;;2.21;100.00;98100.69;5033173;28;20201;-69
2023/12/18 08:32:31;;;;;;;16.80;6.63;;;;;;;2.24;100.00;98104.88;5034695;28;20231;-69
2023/12/18 08:35:00;;;;;;;15.23;6.10;;;;;;;2.17;100.00;98108.75;5033325;28;20584;-69
2023/12/18 08:37:27;;;;;;;16.50;5.70;;;;;;;2.31;100.00;98096.69;5033553;28;20202;-69
2023/12/18 08:39:55;;;;;;;11.83;4.97;;;;;;;2.54;100.00;98097.09;5033464;28;20194;-69
2023/12/18 08:42:22;;;;;;;14.53;5.20;;;;;;;2.51;100.00;98089.47;5035184;28;20271;-69
2023/12/18 08:44:49;;;;;;;20.00;6.53;;;;;;;2.51;100.00;98094.69;5033058;28;20217;-69
2023/12/18 08:47:16;;;;;;;16.93;5.87;;;;;;;2.59;100.00;98099.47;5033639;28;20224;-69
2023/12/18 08:49:42;;;;;;;13.37;5.37;;;;;;;2.60;100.00;98096.78;5034256;28;20208;-69
2023/12/18 08:52:09;;;;;;;20.60;5.10;;;;;;;2.59;100.00;98092.50;5035792;28;20250;-69
2023/12/18 08:54:35;;;;;;;17.77;6.13;;;;;;;2.46;100.00;98093.25;5032951;28;20868;-69
2023/12/18 08:57:04;;;;;;;16.47;6.27;;;;;;;2.71;100.00;98096.19;5033366;28;20201;-70
2023/12/18 08:59:30;;;;;;;16.33;6.03;;;;;;;2.52;100.00;98096.38;5034468;28;20569;-68
2023/12/18 09:01:57;;;;;;;14.90;6.27;;;;;;;2.41;100.00;98098.69;5033393;28;20224;-70
2023/12/18 09:04:24;;;;;;;13.50;5.20;;;;;;;2.38;100.00;98087.63;5033285;28;20197;-69
2023/12/18 09:06:50;;;;;;;14.40;6.00;;;;;;;2.59;100.00;98087.28;5033187;28;20286;-69
2023/12/18 09:09:17;;;;;;;18.57;6.40;;;;;;;2.49;100.00;98083.50;5034108;28;20583;-69
2023/12/18 09:11:43;;;;;;;13.93;4.50;;;;;;;2.57;100.00;98089.16;5032958;28;20252;-70
2023/12/18 09:14:11;;;;;;;13.43;5.77;;;;;;;2.73;100.00;98087.38;5031088;28;20657;-70
2023/12/18 09:16:39;;;;;;;15.83;7.03;;;;;;;2.65;100.00;98092.16;5034155;28;20204;-69
2023/12/18 09:19:05;;;;;;;12.90;5.77;;;;;;;2.77;100.00;98091.47;5034640;28;20201;-69
2023/12/18 09:21:32;;;;;;;13.87;6.03;;;;;;;2.82;100.00;98088.63;5034471;28;20571;-69
2023/12/18 09:23:58;;;;;;;15.67;6.03;;;;;;;2.72;100.00;98083.06;5034292;28;20209;-69
2023/12/18 09:26:25;;;;;;;15.23;6.50;;;;;;;2.69;100.00;98088.47;5033247;28;20197;-70
2023/12/18 09:28:51;;;;;;;14.60;6.00;;;;;;;2.97;100.00;98088.59;5033319;28;20212;-69
2023/12/18 09:31:20;;;;;;;13.93;5.87;;;;;;;3.21;100.00;98087.22;5033301;28;20217;-69
2023/12/18 09:33:47;;;;;;;11.80;5.13;;;;;;;3.20;100.00;98093.34;5033473;28;20229;-70
2023/12/18 09:36:14;;;;;;;13.47;5.37;;;;;;;3.22;100.00;98094.09;5034359;28;20198;-70
2023/12/18 09:38:40;;;;;;;16.17;6.33;;;;;;;3.27;100.00;98089.44;5032989;28;20203;-72
2023/12/18 09:41:07;;;;;;;16.63;6.60;;;;;;;3.19;100.00;98089.88;5031467;28;20228;-70
2023/12/18 09:43:34;;;;;;;18.23;5.33;;;;;;;3.21;100.00;98085.44;5034267;28;20202;-69
2023/12/18 09:46:02;;;;;;;20.90;6.50;;;;;;;3.15;100.00;98087.56;5032724;28;20680;-69
2023/12/18 09:48:30;;;;;;;15.17;5.47;;;;;;;3.40;100.00;98093.03;5032804;28;20197;-69
2023/12/18 09:50:56;;;;;;;18.07;6.97;;;;;;;3.33;100.00;98096.94;5032931;28;20223;-70
2023/12/18 09:53:24;;;;;;;18.60;6.30;;;;;;;3.38;100.00;98094.91;5032947;28;20218;-69
2023/12/18 09:55:54;;;;;;;22.77;7.57;;;;;;;3.51;100.00;98086.25;5032873;28;20223;-69
2023/12/18 09:58:23;;;;;;;16.43;6.77;;;;;;;3.57;100.00;98082.47;5034050;28;20232;-69
2023/12/18 10:00:50;;;;;;;16.67;6.70;;;;;;;3.32;100.00;98077.84;5032867;28;20703;-69
2023/12/18 10:03:17;;;;;;;13.13;5.53;;;;;;;3.52;100.00;98079.31;5034779;28;20244;-69
2023/12/18 10:05:45;;;;;;;16.00;5.80;;;;;;;3.72;100.00;98075.41;5034018;28;20773;-69
2023/12/18 10:08:11;;;;;;;15.43;5.47;;;;;;;3.62;100.00;98080.44;5034860;28;20271;-69
2023/12/18 10:10:38;;;;;;;16.20;5.37;;;;;;;3.74;100.00;98081.38;5033283;28;20203;-69
2023/12/18 10:13:07;;;;;;;14.03;5.13;;;;;;;3.91;100.00;98076.00;5032434;28;20233;-71
2023/12/18 10:15:35;;;;;;;11.97;5.40;;;;;;;4.04;100.00;98074.31;5032814;28;20196;-69
2023/12/18 10:18:02;;;;;;;15.77;5.50;;;;;;;4.01;100.00;98071.06;5033632;28;20206;-69
2023/12/18 10:20:29;;;;;;;17.20;5.33;;;;;;;4.12;100.00;98066.84;5034579;28;20207;-70
2023/12/18 10:22:57;;;;;;;13.83;5.70;;;;;;;3.95;100.00;98074.06;5034306;28;20228;-69
2023/12/18 10:25:24;;;;;;;16.37;5.80;;;;;;;4.08;100.00;98065.38;5035130;28;20210;-70
2023/12/18 10:27:54;;;;;;;10.63;4.30;;;;;;;3.99;100.00;98057.28;5033128;28;20272;-69
2023/12/18 10:30:25;;;;;;;15.43;5.70;;;;;;;4.04;100.00;98050.03;5031876;28;20198;-69
2023/12/18 10:32:52;;;;;;;11.10;4.93;;;;;;;4.00;100.00;98051.97;5034702;28;20227;-69
2023/12/18 10:35:18;;;;;;;12.53;4.73;;;;;;;3.89;100.00;98048.34;5035001;28;20202;-69
2023/12/18 10:37:53;;;;;;;14.60;6.90;;;;;;;4.17;100.00;98036.09;5033192;28;20213;-70
2023/12/18 10:40:23;;;;;;;15.67;5.47;;;;;;;4.21;100.00;98037.59;5032811;28;20206;-70
2023/12/18 10:42:57;;;;;;;9.93;4.90;;;;;;;4.21;100.00;98031.53;5033553;28;20227;-70
2023/12/18 10:45:25;;;;;;;9.97;4.37;;;;;;;4.12;100.00;98019.91;5033087;28;21076;-69
2023/12/18 10:47:53;;;;;;;11.23;4.23;;;;;;;4.18;100.00;98010.88;5034243;28;20212;-69
2023/12/18 10:50:21;;;;;;;7.10;3.67;;;;;;;4.36;100.00;98008.75;5033573;28;20203;-69
2023/12/18 10:52:48;;;;;;;14.37;3.87;;;;;;;4.32;100.00;98006.47;5034875;28;20239;-69
2023/12/18 10:55:16;;;;;;;8.70;4.00;;;;;;;4.50;100.00;97998.28;5034850;28;20585;-69
2023/12/18 10:57:45;;;;;;;12.77;4.63;;;;;;;4.67;100.00;97992.00;5035304;28;20207;-69
2023/12/18 11:00:14;;;;;;;8.63;4.23;;;;;;;4.74;100.00;97988.91;5034746;28;20231;-69
2023/12/18 11:02:42;;;;;;;12.13;4.17;;;;;;;4.83;100.00;97989.13;5038065;28;20356;-69
2023/12/18 11:05:12;;;;;;;10.63;4.13;;;;;;;5.07;100.00;97991.91;5037175;28;20212;-69
2023/12/18 11:07:41;;;;;;;8.03;4.43;;;;;;;4.87;100.00;97985.41;5037219;28;20556;-69
2023/12/18 11:10:08;;;;;;;9.80;3.97;;;;;;;4.93;100.00;97987.59;5038144;28;21120;-70
2023/12/18 11:12:38;;;;;;;10.57;4.13;;;;;;;4.85;100.00;97974.19;5038879;28;20232;-69
2023/12/18 11:15:12;;;;;;;10.77;5.03;;;;;;;5.02;100.00;97970.47;5038827;28;20218;-69
2023/12/18 11:17:46;;;;;;;11.03;3.97;;;;;;;4.98;100.00;97976.84;5037650;28;20767;-69
2023/12/18 11:20:24;;;;;;;9.77;3.93;;;;;;;5.18;100.00;97973.72;5040643;28;20211;-69
2023/12/18 11:22:55;;;;;;;13.13;5.17;;;;;;;5.10;100.00;97968.19;5042517;28;20229;-69